createdAt,value
2019-06-15T00:02:19.819Z,3.30
2019-06-15T00:04:50.096Z,4.00
2019-06-15T00:07:18.519Z,2.97
2019-06-15T00:09:46.958Z,3.77
2019-06-15T00:12:15.393Z,3.70
2019-06-15T00:14:43.834Z,3.87
2019-06-15T00:17:13.557Z,3.80
2019-06-15T00:19:43.506Z,3.37
2019-06-15T00:22:17.603Z,4.70
2019-06-15T00:24:48.805Z,3.77
2019-06-15T00:27:17.290Z,4.37
2019-06-15T00:29:47.287Z,3.80
2019-06-15T00:32:17.357Z,4.03
2019-06-15T00:34:47.522Z,3.57
2019-06-15T00:37:18.081Z,4.17
2019-06-15T00:39:48.074Z,3.60
2019-06-15T00:42:19.237Z,4.83
2019-06-15T00:44:49.265Z,3.63
2019-06-15T00:47:17.819Z,3.93
2019-06-15T00:49:50.687Z,4.33
2019-06-15T00:52:19.135Z,3.50
2019-06-15T00:54:50.841Z,4.37
2019-06-15T00:57:19.383Z,4.90
2019-06-15T00:59:47.812Z,4.03
2019-06-15T01:02:23.228Z,4.10
2019-06-15T01:04:54.539Z,4.00
2019-06-15T01:07:22.999Z,3.97
2019-06-15T01:09:51.416Z,3.83
2019-06-15T01:12:22.593Z,3.33
2019-06-15T01:14:51.081Z,4.40
2019-06-15T01:17:22.586Z,3.70
2019-06-15T01:19:51.159Z,4.30
2019-06-15T01:22:19.662Z,4.90
2019-06-15T01:24:48.096Z,3.70
2019-06-15T01:27:16.549Z,4.07
2019-06-15T01:29:44.975Z,3.80
2019-06-15T01:32:13.420Z,4.17
2019-06-15T01:34:42.211Z,4.47
2019-06-15T01:37:10.711Z,4.03
2019-06-15T01:39:41.412Z,5.10
2019-06-15T01:42:11.201Z,4.40
2019-06-15T01:44:40.819Z,4.13
2019-06-15T01:47:09.319Z,4.00
2019-06-15T01:49:37.810Z,4.13
2019-06-15T01:52:07.804Z,5.20
2019-06-15T01:54:36.386Z,3.70
2019-06-15T01:57:05.052Z,4.20
2019-06-15T01:59:33.563Z,4.10
2019-06-15T02:02:02.006Z,4.43
2019-06-15T02:04:31.966Z,4.47
2019-06-15T02:07:03.476Z,4.57
2019-06-15T02:09:32.012Z,4.50
2019-06-15T02:12:00.424Z,4.30
2019-06-15T02:14:31.715Z,4.00
2019-06-15T02:17:03.293Z,4.60
2019-06-15T02:19:31.782Z,4.27
2019-06-15T02:22:00.210Z,5.10
2019-06-15T02:24:28.680Z,4.83
2019-06-15T02:26:57.099Z,4.27
2019-06-15T02:29:27.697Z,4.40
2019-06-15T02:31:55.740Z,4.23
2019-06-15T02:34:24.180Z,5.27
2019-06-15T02:36:55.573Z,4.30
2019-06-15T02:39:26.109Z,4.60
2019-06-15T02:41:57.443Z,4.37
2019-06-15T02:44:25.996Z,4.60
2019-06-15T02:46:57.514Z,5.10
2019-06-15T02:49:25.962Z,4.70
2019-06-15T02:51:54.450Z,5.80
2019-06-15T02:54:24.541Z,5.40
2019-06-15T02:56:53.055Z,5.00
2019-06-15T02:59:21.510Z,4.93
2019-06-15T03:01:53.088Z,4.40
2019-06-15T03:04:21.598Z,5.03
2019-06-15T03:06:50.286Z,4.70
2019-06-15T03:09:18.850Z,4.73
2019-06-15T03:11:49.675Z,5.33
2019-06-15T03:14:17.534Z,5.10
2019-06-15T03:16:46.018Z,4.50
2019-06-15T03:19:14.442Z,5.23
2019-06-15T03:21:42.883Z,4.00
2019-06-15T03:24:11.307Z,4.20
2019-06-15T03:26:39.762Z,4.90
2019-06-15T03:29:08.247Z,4.73
2019-06-15T03:31:36.709Z,4.43
2019-06-15T03:34:05.125Z,5.60
2019-06-15T03:36:35.118Z,4.87
2019-06-15T03:39:05.283Z,5.00
2019-06-15T03:41:33.804Z,4.50
2019-06-15T03:44:02.319Z,5.50
2019-06-15T03:46:30.795Z,5.70
2019-06-15T03:48:59.215Z,5.17
2019-06-15T03:51:27.658Z,5.60
2019-06-15T03:53:56.084Z,5.30
2019-06-15T03:56:24.521Z,4.87
2019-06-15T03:58:52.958Z,5.83
2019-06-15T04:01:27.187Z,5.10
2019-06-15T04:03:57.234Z,5.07
2019-06-15T04:06:25.675Z,5.20
2019-06-15T04:08:54.135Z,4.70
2019-06-15T04:11:22.651Z,4.97
2019-06-15T04:13:52.632Z,5.17
2019-06-15T04:16:21.147Z,5.00
2019-06-15T04:18:49.577Z,4.30
2019-06-15T04:21:17.999Z,4.30
2019-06-15T04:23:46.461Z,3.97
2019-06-15T04:26:16.524Z,4.13
2019-06-15T04:28:44.971Z,4.33
2019-06-15T04:31:13.399Z,3.33
2019-06-15T04:33:41.843Z,3.43
2019-06-15T04:36:10.262Z,2.93
2019-06-15T04:38:38.724Z,3.13
2019-06-15T04:41:07.151Z,3.90
2019-06-15T04:43:35.602Z,4.10
2019-06-15T04:46:04.166Z,4.33
2019-06-15T04:48:32.673Z,4.17
2019-06-15T04:51:02.687Z,4.23
2019-06-15T04:53:31.318Z,4.10
2019-06-15T04:55:59.765Z,4.40
2019-06-15T04:58:29.968Z,4.40
2019-06-15T05:00:58.413Z,4.20
2019-06-15T05:03:26.928Z,4.07
2019-06-15T05:05:55.385Z,4.13
2019-06-15T05:08:23.797Z,4.30
2019-06-15T05:10:52.239Z,4.00
2019-06-15T05:13:22.206Z,3.83
2019-06-15T05:15:50.662Z,4.43
2019-06-15T05:18:19.147Z,4.00
2019-06-15T05:20:47.621Z,4.30
2019-06-15T05:23:16.086Z,4.60
2019-06-15T05:25:44.539Z,3.63
2019-06-15T05:28:12.983Z,4.90
2019-06-15T05:30:41.529Z,5.40
2019-06-15T05:33:10.020Z,4.60
2019-06-15T05:35:38.530Z,4.93
2019-06-15T05:38:06.940Z,4.17
2019-06-15T05:40:35.450Z,5.00
2019-06-15T05:43:04.074Z,4.70
2019-06-15T05:45:32.515Z,3.93
2019-06-15T05:48:00.944Z,4.67
2019-06-15T05:50:29.456Z,4.50
2019-06-15T05:52:57.979Z,4.10
2019-06-15T05:55:27.451Z,4.47
2019-06-15T05:57:56.016Z,4.20
2019-06-15T06:00:26.161Z,4.20
2019-06-15T06:02:54.718Z,4.10
2019-06-15T06:05:23.158Z,3.80
2019-06-15T06:07:51.609Z,4.30
2019-06-15T06:10:20.160Z,3.90
2019-06-15T06:12:48.614Z,4.00
2019-06-15T06:15:17.388Z,5.07
2019-06-15T06:17:45.827Z,3.80
2019-06-15T06:20:15.064Z,4.20
2019-06-15T06:22:43.578Z,3.73
2019-06-15T06:25:13.350Z,4.20
2019-06-15T06:27:41.800Z,3.83
2019-06-15T06:30:11.260Z,4.27
2019-06-15T06:32:39.724Z,3.43
2019-06-15T06:35:08.991Z,4.63
2019-06-15T06:37:37.450Z,4.60
2019-06-15T06:40:10.944Z,4.53
2019-06-15T06:42:39.479Z,4.10
2019-06-15T06:45:09.817Z,3.93
2019-06-15T06:47:38.432Z,4.13
2019-06-15T06:50:08.383Z,3.40
2019-06-15T06:52:36.827Z,3.80
2019-06-15T06:55:08.504Z,3.20
2019-06-15T06:57:51.110Z,3.20
2019-06-15T07:00:07.990Z,3.50
2019-06-15T07:02:36.581Z,4.67
2019-06-15T07:05:06.104Z,4.70
2019-06-15T07:07:34.733Z,3.17
2019-06-15T07:10:05.014Z,3.03
2019-06-15T07:12:33.435Z,3.23
2019-06-15T07:15:04.692Z,3.13
2019-06-15T07:17:33.724Z,3.03
2019-06-15T07:20:02.558Z,2.90
2019-06-15T07:22:31.083Z,2.60
2019-06-15T07:24:59.535Z,2.57
2019-06-15T07:27:27.964Z,2.80
2019-06-15T07:29:56.538Z,3.37
2019-06-15T07:32:24.983Z,2.83
2019-06-15T07:34:53.438Z,2.20
2019-06-15T07:37:21.859Z,2.73
2019-06-15T07:39:50.304Z,2.93
2019-06-15T07:42:18.732Z,2.50
2019-06-15T07:44:47.188Z,2.27
2019-06-15T07:47:15.623Z,2.53
2019-06-15T07:49:44.131Z,4.87
2019-06-15T07:52:12.640Z,14.23
2019-06-15T07:54:41.166Z,2.10
2019-06-15T07:57:09.595Z,6.30
2019-06-15T07:59:38.024Z,2.37
2019-06-15T08:02:06.443Z,2.57
2019-06-15T08:04:34.888Z,2.50
2019-06-15T08:07:03.380Z,2.20
2019-06-15T08:09:31.938Z,2.60
2019-06-15T08:12:00.367Z,2.27
2019-06-15T08:14:28.809Z,2.13
2019-06-15T08:16:57.258Z,2.50
2019-06-15T08:19:27.523Z,2.07
2019-06-15T08:21:55.952Z,2.00
2019-06-15T08:24:24.386Z,2.13
2019-06-15T08:26:52.889Z,2.40
2019-06-15T08:29:21.314Z,2.33
2019-06-15T08:31:52.047Z,2.43
2019-06-15T08:34:20.488Z,2.40
2019-06-15T08:36:48.939Z,2.20
2019-06-15T08:39:17.367Z,2.30
2019-06-15T08:41:45.823Z,3.10
2019-06-15T08:44:14.313Z,2.50
2019-06-15T08:46:42.756Z,2.40
2019-06-15T08:49:11.250Z,2.43
2019-06-15T08:51:39.698Z,2.70
2019-06-15T08:54:08.123Z,2.10
2019-06-15T08:56:36.580Z,2.50
2019-06-15T08:59:04.995Z,2.47
2019-06-15T09:01:33.432Z,2.80
2019-06-15T09:04:02.003Z,1.97
2019-06-15T09:06:30.514Z,2.23
2019-06-15T09:08:58.923Z,2.30
2019-06-15T09:11:27.438Z,1.90
2019-06-15T09:13:57.419Z,2.10
2019-06-15T09:16:25.990Z,1.80
2019-06-15T09:18:57.272Z,1.80
2019-06-15T09:21:24.724Z,2.13
2019-06-15T09:23:53.261Z,2.03
2019-06-15T09:26:21.845Z,1.77
2019-06-15T09:28:50.386Z,2.03
2019-06-15T09:31:18.880Z,1.67
2019-06-15T09:33:48.899Z,1.90
2019-06-15T09:36:17.488Z,2.00
2019-06-15T09:38:45.988Z,1.47
2019-06-15T09:41:14.416Z,2.13
2019-06-15T09:43:44.395Z,1.83
2019-06-15T09:46:12.828Z,1.70
2019-06-15T09:48:41.276Z,1.60
2019-06-15T09:51:09.704Z,1.37
2019-06-15T09:53:38.160Z,1.70
2019-06-15T09:56:06.645Z,1.77
2019-06-15T09:58:35.078Z,1.70
2019-06-15T10:01:03.514Z,1.50
2019-06-15T10:03:31.957Z,1.90
2019-06-15T10:06:00.446Z,1.40
2019-06-15T10:08:28.884Z,1.37
2019-06-15T10:10:57.323Z,1.33
2019-06-15T10:13:25.763Z,1.20
2019-06-15T10:15:54.196Z,1.30
2019-06-15T10:18:22.639Z,1.03
2019-06-15T10:20:52.621Z,1.40
2019-06-15T10:23:21.054Z,1.60
2019-06-15T10:25:50.541Z,1.73
2019-06-15T10:28:19.119Z,1.17
2019-06-15T10:30:47.556Z,1.20
2019-06-15T10:33:16.007Z,1.50
2019-06-15T10:35:44.454Z,1.27
2019-06-15T10:38:12.879Z,1.30
2019-06-15T10:40:41.321Z,2.13
2019-06-15T10:43:09.847Z,1.33
2019-06-15T10:45:38.293Z,1.37
2019-06-15T10:48:06.794Z,1.40
2019-06-15T10:50:35.304Z,1.30
2019-06-15T10:53:03.795Z,1.20
2019-06-15T10:55:32.269Z,1.20
2019-06-15T10:58:00.717Z,1.70
2019-06-15T11:00:29.523Z,1.20
2019-06-15T11:02:58.066Z,1.40
2019-06-15T11:05:26.538Z,1.03
2019-06-15T11:07:55.001Z,1.60
2019-06-15T11:10:42.962Z,1.30
2019-06-15T11:13:11.363Z,1.70
2019-06-15T11:15:40.737Z,1.30
2019-06-15T11:18:09.648Z,1.50
2019-06-15T11:20:38.099Z,1.13
2019-06-15T11:23:06.523Z,1.20
2019-06-15T11:25:34.979Z,1.93
2019-06-15T11:28:03.430Z,1.50
2019-06-15T11:30:32.143Z,1.33
2019-06-15T11:33:00.555Z,1.10
2019-06-15T11:35:29.093Z,1.33
2019-06-15T11:37:59.184Z,1.70
2019-06-15T11:40:27.662Z,1.20
2019-06-15T11:42:56.122Z,1.50
2019-06-15T11:45:24.552Z,1.10
2019-06-15T11:47:53.009Z,1.40
2019-06-15T11:50:21.648Z,1.27
2019-06-15T11:52:50.183Z,3.07
2019-06-15T11:55:20.051Z,1.30
2019-06-15T11:57:48.808Z,1.23
2019-06-15T12:00:30.841Z,1.50
2019-06-15T12:02:50.579Z,1.67
2019-06-15T12:05:19.004Z,1.53
2019-06-15T12:07:47.443Z,1.37
2019-06-15T12:10:16.218Z,1.67
2019-06-15T12:12:44.683Z,1.70
2019-06-15T12:15:13.336Z,1.40
2019-06-15T12:17:41.790Z,1.50
2019-06-15T12:20:10.655Z,1.77
2019-06-15T12:22:39.093Z,1.50
2019-06-15T12:25:07.855Z,1.30
2019-06-15T12:27:37.910Z,1.30
2019-06-15T12:30:08.965Z,1.77
2019-06-15T12:32:37.404Z,1.67
2019-06-15T12:35:06.925Z,1.70
2019-06-15T12:37:35.374Z,1.67
2019-06-15T12:40:08.747Z,1.53
2019-06-15T12:42:37.200Z,1.60
2019-06-15T12:45:05.891Z,1.60
2019-06-15T12:47:34.514Z,1.40
2019-06-15T12:50:04.528Z,2.13
2019-06-15T12:52:32.973Z,1.70
2019-06-15T12:55:01.477Z,1.33
2019-06-15T12:57:29.930Z,1.40
2019-06-15T12:59:58.504Z,1.53
2019-06-15T13:02:28.474Z,1.40
2019-06-15T13:04:56.952Z,1.30
2019-06-15T13:07:25.399Z,1.43
2019-06-15T13:09:53.838Z,1.40
2019-06-15T13:12:22.262Z,1.60
2019-06-15T13:14:50.745Z,1.60
2019-06-15T13:17:19.178Z,1.40
2019-06-15T13:19:47.647Z,1.60
2019-06-15T13:22:16.071Z,1.50
2019-06-15T13:24:46.079Z,2.20
2019-06-15T13:27:14.568Z,2.07
2019-06-15T13:29:43.041Z,2.13
2019-06-15T13:32:11.518Z,1.50
2019-06-15T13:34:40.031Z,1.37
2019-06-15T13:37:08.518Z,1.80
2019-06-15T13:39:37.015Z,1.70
2019-06-15T13:42:07.194Z,1.80
2019-06-15T13:44:35.628Z,1.60
2019-06-15T13:47:05.756Z,2.30
2019-06-15T13:49:34.163Z,2.07
2019-06-15T13:52:02.705Z,1.90
2019-06-15T13:54:31.206Z,1.83
2019-06-15T13:56:59.645Z,2.00
2019-06-15T13:59:28.106Z,2.20
2019-06-15T14:01:58.155Z,2.07
2019-06-15T14:04:26.584Z,1.73
2019-06-15T14:06:55.284Z,1.50
2019-06-15T14:09:23.748Z,1.47
2019-06-15T14:11:52.158Z,1.73
2019-06-15T14:14:20.686Z,2.07
2019-06-15T14:16:49.139Z,2.23
2019-06-15T14:19:17.565Z,1.70
2019-06-15T14:21:46.003Z,2.03
2019-06-15T14:24:14.492Z,1.80
2019-06-15T14:26:42.919Z,1.43
2019-06-15T14:29:11.349Z,1.97
2019-06-15T14:31:49.792Z,1.73
2019-06-15T14:34:10.003Z,1.80
2019-06-15T14:36:38.439Z,1.53
2019-06-15T14:39:07.173Z,2.00
2019-06-15T14:41:35.610Z,1.90
2019-06-15T14:44:04.294Z,2.10
2019-06-15T14:46:32.729Z,1.80
2019-06-15T14:49:01.171Z,2.13
2019-06-15T14:51:29.610Z,1.50
2019-06-15T14:53:59.043Z,2.40
2019-06-15T14:56:27.756Z,1.77
2019-06-15T14:58:56.393Z,1.47
2019-06-15T15:01:26.127Z,2.07
2019-06-15T15:03:57.061Z,2.00
2019-06-15T15:06:26.082Z,1.47
2019-06-15T15:08:56.229Z,1.73
2019-06-15T15:11:26.511Z,1.60
2019-06-15T15:13:56.198Z,1.63
2019-06-15T15:16:24.894Z,2.10
2019-06-15T15:18:53.377Z,1.50
2019-06-15T15:21:21.799Z,1.67
2019-06-15T15:23:50.244Z,1.77
2019-06-15T15:26:18.747Z,1.50
2019-06-15T15:28:47.443Z,1.90
2019-06-15T15:31:17.239Z,1.73
2019-06-15T15:33:47.733Z,1.50
2019-06-15T15:36:16.919Z,1.40
2019-06-15T15:38:46.844Z,1.80
2019-06-15T15:41:17.129Z,1.40
2019-06-15T15:43:46.356Z,1.90
2019-06-15T15:46:16.442Z,1.63
2019-06-15T15:48:46.928Z,1.80
2019-06-15T15:51:17.164Z,1.70
2019-06-15T15:53:46.704Z,1.50
2019-06-15T15:56:17.097Z,1.50
2019-06-15T15:58:47.146Z,1.80
2019-06-15T16:01:17.118Z,2.00
2019-06-15T16:03:47.555Z,1.70
2019-06-15T16:06:16.128Z,1.77
2019-06-15T16:08:47.150Z,1.50
2019-06-15T16:11:16.280Z,1.43
2019-06-15T16:13:46.176Z,1.97
2019-06-15T16:16:16.481Z,1.60
2019-06-15T16:18:46.969Z,1.90
2019-06-15T16:21:16.827Z,1.60
2019-06-15T16:23:47.048Z,1.83
2019-06-15T16:26:16.918Z,1.50
2019-06-15T16:28:46.193Z,1.97
2019-06-15T16:31:17.732Z,1.87
2019-06-15T16:33:46.508Z,1.50
2019-06-15T16:36:16.815Z,1.50
2019-06-15T16:38:47.004Z,1.80
2019-06-15T16:41:15.478Z,1.40
2019-06-15T16:43:45.970Z,1.50
2019-06-15T16:46:14.094Z,1.80
2019-06-15T16:48:42.520Z,1.60
2019-06-15T16:51:11.128Z,1.40
2019-06-15T16:53:39.542Z,1.70
2019-06-15T16:56:07.986Z,1.70
2019-06-15T16:58:36.462Z,1.60
2019-06-15T17:01:06.517Z,1.60
2019-06-15T17:03:36.703Z,1.77
2019-06-15T17:06:07.032Z,1.30
2019-06-15T17:08:36.764Z,1.90
2019-06-15T17:11:06.817Z,1.80
2019-06-15T17:13:37.022Z,1.47
2019-06-15T17:16:06.081Z,1.37
2019-06-15T17:18:36.459Z,1.53
2019-06-15T17:21:07.105Z,1.80
2019-06-15T17:23:35.425Z,1.83
2019-06-15T17:26:06.274Z,1.60
2019-06-15T17:28:34.032Z,1.80
2019-06-15T17:31:06.045Z,1.70
2019-06-15T17:33:38.132Z,1.70
2019-06-15T17:36:06.585Z,1.43
2019-06-15T17:38:37.006Z,1.83
2019-06-15T17:41:05.050Z,1.50
2019-06-15T17:43:33.486Z,1.47
2019-06-15T17:46:02.056Z,1.63
2019-06-15T17:48:30.486Z,1.60
2019-06-15T17:50:58.941Z,1.60
2019-06-15T17:53:27.367Z,1.67
2019-06-15T17:55:56.189Z,1.90
2019-06-15T17:58:26.188Z,1.43
2019-06-15T18:00:57.282Z,1.70
2019-06-15T18:03:26.091Z,1.47
2019-06-15T18:05:54.683Z,1.50
2019-06-15T18:08:23.191Z,1.50
2019-06-15T18:10:51.619Z,1.60
2019-06-15T18:13:20.100Z,1.50
2019-06-15T18:15:48.530Z,1.60
2019-06-15T18:18:17.254Z,1.80
2019-06-15T18:20:45.880Z,1.57
2019-06-15T18:23:17.025Z,1.73
2019-06-15T18:25:46.917Z,1.60
2019-06-15T18:28:17.452Z,1.70
2019-06-15T18:30:46.615Z,1.97
2019-06-15T18:33:16.558Z,1.67
2019-06-15T18:35:47.578Z,1.67
2019-06-15T18:38:15.681Z,1.20
2019-06-15T18:40:44.091Z,1.60
2019-06-15T18:43:12.533Z,1.77
2019-06-15T18:45:40.965Z,1.40
2019-06-15T18:48:09.720Z,1.70
2019-06-15T18:50:40.394Z,1.37
2019-06-15T18:53:09.686Z,1.37
2019-06-15T18:55:38.875Z,1.60
2019-06-15T18:58:07.370Z,1.40
2019-06-15T19:00:37.068Z,1.60
2019-06-15T19:03:06.932Z,1.40
2019-06-15T19:05:37.254Z,1.50
2019-06-15T19:08:06.802Z,1.77
2019-06-15T19:10:36.833Z,1.70
2019-06-15T19:13:07.440Z,1.70
2019-06-15T19:15:37.448Z,1.83
2019-06-15T19:18:07.474Z,1.77
2019-06-15T19:20:37.272Z,1.60
2019-06-15T19:23:06.995Z,1.90
2019-06-15T19:25:36.511Z,1.77
2019-06-15T19:28:05.465Z,1.67
2019-06-15T19:30:37.038Z,1.60
2019-06-15T19:33:04.566Z,1.80
2019-06-15T19:35:36.036Z,1.90
2019-06-15T19:38:06.046Z,1.77
2019-06-15T19:40:33.911Z,1.93
2019-06-15T19:43:02.459Z,1.97
2019-06-15T19:45:31.039Z,1.80
2019-06-15T19:47:59.462Z,1.93
2019-06-15T19:50:27.914Z,2.07
2019-06-15T19:52:56.589Z,1.63
2019-06-15T19:55:26.876Z,2.00
2019-06-15T19:57:56.879Z,1.97
2019-06-15T20:00:27.023Z,2.50
2019-06-15T20:02:57.293Z,1.93
2019-06-15T20:05:28.594Z,1.60
2019-06-15T20:07:57.046Z,2.40
2019-06-15T20:10:26.675Z,2.10
2019-06-15T20:12:56.238Z,1.77
2019-06-15T20:15:26.293Z,1.60
2019-06-15T20:17:56.988Z,1.50
2019-06-15T20:20:26.630Z,2.30
2019-06-15T20:22:56.110Z,2.17
2019-06-15T20:25:26.834Z,2.13
2019-06-15T20:27:56.365Z,1.97
2019-06-15T20:30:25.016Z,1.90
2019-06-15T20:32:53.569Z,2.20
2019-06-15T20:35:22.012Z,1.93
2019-06-15T20:37:50.493Z,1.60
2019-06-15T20:40:19.013Z,2.10
2019-06-15T20:42:47.451Z,2.20
2019-06-15T20:45:16.410Z,2.30
2019-06-15T20:47:47.772Z,2.47
2019-06-15T20:50:25.481Z,2.50
2019-06-15T20:52:47.278Z,2.27
2019-06-15T20:55:16.355Z,2.40
2019-06-15T20:57:46.110Z,2.87
2019-06-15T21:00:16.738Z,3.13
2019-06-15T21:02:45.349Z,2.77
2019-06-15T21:05:32.618Z,2.90
2019-06-15T21:07:46.683Z,2.67
2019-06-15T21:10:16.084Z,2.20
2019-06-15T21:12:46.907Z,3.13
2019-06-15T21:15:15.459Z,2.50
2019-06-15T21:17:46.488Z,2.77
2019-06-15T21:20:16.219Z,2.80
2019-06-15T21:22:46.507Z,2.70
2019-06-15T21:25:17.379Z,2.87
2019-06-15T21:27:47.405Z,2.90
2019-06-15T21:30:16.567Z,3.33
2019-06-15T21:32:46.640Z,2.90
2019-06-15T21:35:15.307Z,3.10
2019-06-15T21:37:46.290Z,3.67
2019-06-15T21:40:15.970Z,3.40
2019-06-15T21:42:46.740Z,3.67
2019-06-15T21:45:14.844Z,3.07
2019-06-15T21:47:43.272Z,3.20
2019-06-15T21:50:12.396Z,3.80
2019-06-15T21:52:40.825Z,3.63
2019-06-15T21:55:09.899Z,4.47
2019-06-15T21:57:38.336Z,3.30
2019-06-15T22:00:17.190Z,3.60
2019-06-15T22:02:44.183Z,3.90
2019-06-15T22:05:13.284Z,4.27
2019-06-15T22:07:41.776Z,3.47
2019-06-15T22:10:10.454Z,3.40
2019-06-15T22:12:38.884Z,3.73
2019-06-15T22:15:09.269Z,3.93
2019-06-15T22:17:37.779Z,3.47
2019-06-15T22:20:06.954Z,4.20
2019-06-15T22:22:36.419Z,4.87
2019-06-15T22:25:06.885Z,4.27
2019-06-15T22:27:36.259Z,4.80
2019-06-15T22:30:07.658Z,4.17
2019-06-15T22:32:36.243Z,4.87
2019-06-15T22:35:09.347Z,5.10
2019-06-15T22:37:37.958Z,5.20
2019-06-15T22:40:08.192Z,5.00
2019-06-15T22:42:36.788Z,5.80
2019-06-15T22:45:07.309Z,5.43
2019-06-15T22:47:36.288Z,5.30
2019-06-15T22:50:06.920Z,4.77
2019-06-15T22:52:36.435Z,5.10
2019-06-15T22:55:08.823Z,5.00
2019-06-15T22:57:37.325Z,5.20
2019-06-15T23:00:08.008Z,4.50
2019-06-15T23:02:36.994Z,4.73
2019-06-15T23:05:06.490Z,3.87
2019-06-15T23:07:36.344Z,4.47
2019-06-15T23:10:08.160Z,4.30
2019-06-15T23:12:37.363Z,3.87
2019-06-15T23:15:07.880Z,4.13
2019-06-15T23:17:37.234Z,4.20
2019-06-15T23:20:07.906Z,4.00
2019-06-15T23:22:36.428Z,3.90
2019-06-15T23:25:06.132Z,4.10
2019-06-15T23:27:34.815Z,4.00
2019-06-15T23:30:06.773Z,4.13
2019-06-15T23:32:35.139Z,5.10
2019-06-15T23:35:06.524Z,4.90
2019-06-15T23:37:37.580Z,4.53
2019-06-15T23:40:19.998Z,4.37
2019-06-15T23:42:49.879Z,4.23
2019-06-15T23:45:19.807Z,4.70
2019-06-15T23:47:48.687Z,4.40
2019-06-15T23:50:18.734Z,4.50
2019-06-15T23:52:48.221Z,4.40
2019-06-15T23:55:18.890Z,4.17
2019-06-15T23:57:47.492Z,4.50
